Nearby METAR Reports

 

KTEB - Teterboro, New Jersey, USA
Distance from station: ENE 2mi, 4km
Updated: 07/26/2021 6:51pm
Clear
Clear
 Wind from NNW
Wind: NNW 8 mph , 13 km/h
Temperature: 84°F , 29°C
Heat Index: 83°F , 28°C
Dew Point: 57°F , 14°C
Humidity: 40%
Barometer: 29.86 inHg , 1011.2 hPa
Clouds: Clear
Visibility: 9 miles , 14 km
2021/07/26 22:51 KTEB 262251Z 34007KT 9SM CLR 29/14 A2986 RMK AO2 SLP112 T02940139
KNYC - Nyc/Central Park, New York, USA
Distance from station: SE 8mi, 13km
Updated: 07/26/2021 6:51pm
Haze, Clear
Haze, Clear
 Wind from calm
Wind: Calm
Temperature: 86°F , 30°C
Dew Point: 54°F , 12°C
Humidity: 33%
Barometer: 29.91 inHg , 1012.9 hPa
Summary: Haze
Clouds: Clear
Visibility: 5 miles , 8 km
2021/07/26 22:51 KNYC 262251Z AUTO 00000KT 5SM HZ CLR 30/12 A2991 RMK AO2 SLP118 T03000122 $
 
KCDW - Caldwell, New Jersey, USA
Distance from station: WNW 10mi, 17km
Updated: 07/26/2021 6:53pm
Haze, Clear
Haze, Clear
 Wind from NW
Wind: NW 3 mph , 6 km/h
Temperature: 88°F , 31°C
Heat Index: 88°F , 31°C
Dew Point: 61°F , 16°C
Humidity: 40%
Barometer: 29.89 inHg , 1012.2 hPa
Summary: Haze
Clouds: Clear
Visibility: 6 miles , 10 km
2021/07/26 22:53 KCDW 262253Z 32003KT 6SM HZ CLR 31/16 A2989 RMK AO2 SLP124 T03110156
KLGA - Nyc/La Guardia, New York, USA
Distance from station: ESE 12mi, 19km
Updated: 07/26/2021 6:51pm
Partly cloudy
Partly cloudy
 Wind from NW
Wind: NW 9 mph , 15 km/h
Temperature: 88°F , 31°C
Dew Point: 55°F , 13°C
Humidity: 33%
Barometer: 29.87 inHg , 1011.5 hPa
Clouds: Partly cloudy
Visibility: 7 miles , 11 km
Cloud details: Few Clouds 8000 ft
Partly cloudy 25000 ft
2021/07/26 22:51 KLGA 262251Z 31008KT 7SM FEW080 SCT250 31/13 A2987 RMK AO2 SLP113 T03060128
 
KEWR - Newark, New Jersey, USA
Distance from station: SSW 12mi, 20km
Updated: 07/26/2021 6:51pm
Few Clouds
Few Clouds
 Wind from WNW
Wind: WNW 12 mph , 19 km/h
Temperature: 90°F , 32°C
Dew Point: 55°F , 13°C
Humidity: 31%
Barometer: 29.87 inHg , 1011.5 hPa
Clouds: Few Clouds
Visibility: 8 miles , 13 km
Cloud details: Few Clouds 6500 ft
Few Clouds 25000 ft
2021/07/26 22:51 KEWR 262251Z 29010KT 8SM FEW065 FEW250 32/13 A2987 RMK AO2 SLP114 T03170128
KMMU - Morristown Muni, New Jersey, USA
Distance from station: WSW 18mi, 29km
Updated: 07/26/2021 6:45pm
Clear
Clear
 Wind from calm
Wind: Calm
Temperature: 86°F , 30°C
Heat Index: 88°F , 31°C
Dew Point: 66°F , 19°C
Humidity: 52%
Barometer: 29.89 inHg , 1012.2 hPa
Clouds: Clear
Visibility: 7 miles , 11 km
2021/07/26 22:45 KMMU 262245Z 00000KT 7SM SKC 30/19 A2989
 
KJFK - Nyc/Jfk Arpt, New York, USA
Distance from station: SE 23mi, 36km
Updated: 07/26/2021 6:51pm
Partly cloudy
Partly cloudy
 Wind from SSW
Wind: SSW 8 mph , 13 km/h
Temperature: 81°F , 27°C
Heat Index: 84°F , 29°C
Dew Point: 68°F , 20°C
Humidity: 66%
Barometer: 29.88 inHg , 1011.9 hPa
Clouds: Partly cloudy
Visibility: 8 miles , 13 km
Cloud details: Partly cloudy 7500 ft
2021/07/26 22:51 KJFK 262251Z 20007KT 8SM SCT075 27/20 A2988 RMK AO2 SLP119 T02720200
KHPN - White Plains, New York, USA
Distance from station: NE 25mi, 40km
Updated: 07/26/2021 6:56pm
Haze, Clear
Haze, Clear
 Wind from calm
Wind: Calm
Temperature: 81°F , 27°C
Heat Index: 83°F , 28°C
Dew Point: 64°F , 18°C
Humidity: 58%
Barometer: 29.89 inHg , 1012.2 hPa
Summary: Haze
Clouds: Clear
Visibility: 4 miles , 6 km
2021/07/26 22:56 KHPN 262256Z 00000KT 4SM HZ CLR 27/18 A2989 RMK AO2 SLP114 T02720178
 
KSMQ - Somerville, New Jersey, USA
Distance from station: WSW 34mi, 55km
Updated: 07/26/2021 6:53pm
Haze, Clear
Haze, Clear
 Wind from calm
Wind: Calm
Temperature: 81°F , 27°C
Heat Index: 83°F , 28°C
Dew Point: 66°F , 19°C
Humidity: 62%
Barometer: 29.87 inHg , 1011.5 hPa
Summary: Haze
Clouds: Clear
Visibility: 5 miles , 8 km
2021/07/26 22:53 KSMQ 262253Z AUTO 00000KT 5SM HZ CLR 27/19 A2987 RMK AO2 SLP114 T02720189
K12N - Andover, New Jersey, USA
Distance from station: WNW 36mi, 57km
Updated: 07/26/2021 6:54pm

 Wind from calm
Wind: Calm
Temperature: 82°F , 28°C
Heat Index: 84°F , 29°C
Dew Point: 64°F , 18°C
Humidity: 55%
Barometer: 29.92 inHg , 1013.2 hPa
2021/07/26 22:54 K12N 262254Z AUTO 00000KT 28/18 A2992 RMK AO1 SLP120 T02830183
 
KFRG - Farmingdale, New York, USA
Distance from station: ESE 36mi, 58km
Updated: 07/26/2021 6:53pm
Few Clouds
Few Clouds
 Wind from N
Wind: N 8 mph , 13 km/h
Temperature: 86°F , 30°C
Dew Point: 57°F , 14°C
Humidity: 38%
Barometer: 29.88 inHg , 1011.9 hPa
Clouds: Few Clouds
Visibility: 7 miles , 11 km
Cloud details: Few Clouds 7500 ft
2021/07/26 22:53 KFRG 262253Z AUTO 35007KT 7SM FEW075 30/14 A2988 RMK AO2 SLP118 T03000139
KFWN - Sussex, New Jersey, USA
Distance from station: NW 37mi, 60km
Updated: 07/26/2021 6:53pm
Clear
Clear
 Wind from calm
Wind: Calm
Temperature: 82°F , 28°C
Heat Index: 86°F , 30°C
Dew Point: 70°F , 21°C
Humidity: 66%
Barometer: 29.90 inHg , 1012.5 hPa
Clouds: Clear
Visibility: 7 miles , 11 km
2021/07/26 22:53 KFWN 262253Z AUTO 00000KT 7SM CLR 28/21 A2990 RMK AO2 SLP120 T02830206
 
KSWF - Newburgh/Stewart, New York, USA
Distance from station: 0 45mi, 72km
Updated: 07/26/2021 6:45pm
Haze, Partly cloudy
Haze, Partly cloudy
 Wind from varies
Wind: varies 6 mph , 9 km/h
Temperature: 82°F , 28°C
Heat Index: 83°F , 28°C
Dew Point: 63°F , 17°C
Humidity: 51%
Barometer: 29.89 inHg , 1012.2 hPa
Summary: Haze
Clouds: Partly cloudy
Visibility: 5 miles , 8 km
Cloud details: Partly cloudy 7000 ft
2021/07/26 22:45 KSWF 262245Z VRB05KT 5SM HZ SCT070 28/17 A2989
KMGJ - Montgomery, New York, USA
Distance from station: NNW 47mi, 75km
Updated: 07/26/2021 6:54pm
Partly cloudy
Partly cloudy
 Wind from calm
Wind: Calm
Temperature: 81°F , 27°C
Heat Index: 83°F , 28°C
Dew Point: 66°F , 19°C
Humidity: 62%
Barometer: 29.88 inHg , 1011.9 hPa
Clouds: Partly cloudy
Visibility: 9 miles , 14 km
Cloud details: Partly cloudy 8000 ft
2021/07/26 22:54 KMGJ 262254Z AUTO 00000KT 9SM SCT080 27/19 A2988 RMK AO2 SLP117 T02720189
 
KBLM - Belmar/Farmdale, New Jersey, USA
Distance from station: S 47mi, 76km
Updated: 07/26/2021 6:56pm
Clear
Clear
 Wind from SSE
Wind: SSE 5 mph , 7 km/h
Temperature: 84°F , 29°C
Heat Index: 88°F , 31°C
Dew Point: 70°F , 21°C
Humidity: 62%
Barometer: 29.90 inHg , 1012.5 hPa
Clouds: Clear
Visibility: 10 miles , 16 km
2021/07/26 22:56 KBLM 262256Z AUTO 16004KT 10SM CLR 29/21 A2990 RMK AO2 SLP124 T02890211 PNO $
KDXR - Danbury, Connecticut, USA
Distance from station: NE 47mi, 76km
Updated: 07/26/2021 6:53pm
Haze, Clear
Haze, Clear
 Wind from WSW
Wind: WSW 5 mph , 7 km/h
Temperature: 82°F , 28°C
Heat Index: 84°F , 29°C
Dew Point: 66°F , 19°C
Humidity: 58%
Barometer: 29.90 inHg , 1012.5 hPa
Summary: Haze
Clouds: Clear
Visibility: 4 miles , 6 km
2021/07/26 22:53 KDXR 262253Z 24004KT 4SM HZ CLR 28/19 A2990 RMK AO2 SLP121 T02830194
 
KISP - Islip, New York, USA
Distance from station: E 52mi, 83km
Updated: 07/26/2021 6:56pm
Mostly cloudy
Mostly cloudy
 Wind from WSW
Wind: WSW 5 mph , 7 km/h
Temperature: 84°F , 29°C
Heat Index: 86°F , 30°C
Dew Point: 66°F , 19°C
Humidity: 55%
Barometer: 29.87 inHg , 1011.5 hPa
Clouds: Mostly cloudy
Visibility: 10 miles , 16 km
Cloud details: Partly cloudy 7000 ft
Partly cloudy 10000 ft
Mostly cloudy 25000 ft
2021/07/26 22:56 KISP 262256Z 25004KT 10SM SCT070 SCT100 BKN250 29/19 A2987 RMK AO2 SLP115 T02890189
KBDR - Bridgeport, Connecticut, USA
Distance from station: ENE 54mi, 87km
Updated: 07/26/2021 6:52pm
Haze, Clear
Haze, Clear
 Wind from NNW
Wind: NNW 7 mph , 11 km/h
Temperature: 88°F , 31°C
Dew Point: 57°F , 14°C
Humidity: 35%
Barometer: 29.86 inHg , 1011.2 hPa
Summary: Haze
Clouds: Clear
Visibility: 6 miles , 10 km
2021/07/26 22:52 KBDR 262252Z 33006KT 6SM HZ CLR 31/14 A2986 RMK AO2 SLP112 T03060139
 
KTTN - Trenton, New Jersey, USA
Distance from station: SW 55mi, 88km
Updated: 07/26/2021 6:53pm
Clear
Clear
 Wind from NNW
Wind: NNW 5 mph , 7 km/h
Temperature: 84°F , 29°C
Heat Index: 83°F , 28°C
Dew Point: 57°F , 14°C
Humidity: 40%
Barometer: 29.89 inHg , 1012.2 hPa
Clouds: Clear
Visibility: 8 miles , 13 km
2021/07/26 22:53 KTTN 262253Z 33004KT 8SM CLR 29/14 A2989 RMK AO2 SLP113 T02940139
KPOU - Poughkeepsie, New York, USA
Distance from station: N 55mi, 89km
Updated: 07/26/2021 6:53pm
Few Clouds
Few Clouds
 Wind from WNW
Wind: WNW 5 mph , 7 km/h
Temperature: 84°F , 29°C
Heat Index: 85°F , 29°C
Dew Point: 63°F , 17°C
Humidity: 48%
Barometer: 29.86 inHg , 1011.2 hPa
Clouds: Few Clouds
Visibility: 8 miles , 13 km
Cloud details: Few Clouds 8500 ft
2021/07/26 22:53 KPOU 262253Z 30004KT 8SM FEW085 29/17 A2986 RMK AO2 SLP108 T02890172
 
KNEL - Lakehurst Nas, New Jersey, USA
Distance from station: SSW 59mi, 95km
Updated: 07/26/2021 7:00pm
Clear
Clear
 Wind from NW
Wind: NW 3 mph , 6 km/h
Temperature: 84°F , 29°C
Heat Index: 86°F , 30°C
Dew Point: 66°F , 19°C
Humidity: 55%
Barometer: 29.88 inHg , 1011.9 hPa
Clouds: Clear
Visibility: 10 miles , 16 km
2021/07/26 23:00 KNEL 262300Z 32003KT 10SM CLR 29/19 A2988 RMK AO2 SLP115 T02890194 PNO $
KWRI - Wrightst/Mcguire, New Jersey, USA
Distance from station: SSW 63mi, 102km
Updated: 07/26/2021 6:56pm
Clear
Clear
 Wind from N
Wind: N 6 mph , 9 km/h
Temperature: 86°F , 30°C
Heat Index: 87°F , 31°C
Dew Point: 63°F , 17°C
Humidity: 46%
Barometer: 29.88 inHg , 1011.9 hPa
Clouds: Clear
Visibility: 10 miles , 16 km
2021/07/26 22:56 KWRI 262256Z AUTO 35005KT 10SM CLR 30/17 A2988 RMK AO2 SLP117 T02980169
 
KHWV - Shirley, New York, USA
Distance from station: E 64mi, 103km
Updated: 07/26/2021 6:56pm
Partly cloudy
Partly cloudy
 Wind from SSW
Wind: SSW 5 mph , 7 km/h
Temperature: 82°F , 28°C
Heat Index: 86°F , 30°C
Dew Point: 70°F , 21°C
Humidity: 66%
Barometer: 29.88 inHg , 1011.9 hPa
Clouds: Partly cloudy
Visibility: 7 miles , 11 km
Cloud details: Partly cloudy 7000 ft
2021/07/26 22:56 KHWV 262256Z AUTO 21004KT 7SM SCT070 28/21 A2988 RMK AO2 SLP115 T02830206
KMJX - Toms River, New Jersey, USA
Distance from station: S 64mi, 104km
Updated: 07/25/2021 8:56pm
NOT Current

 Wind from S
Wind: S 6 mph , 9 km/h
Temperature: 75°F , 24°C
Dew Point: 72°F , 22°C
Humidity: 89%
Barometer: 29.88 inHg , 1011.9 hPa
Visibility: 10 miles , 16 km
2021/07/26 00:56 KMJX 260056Z AUTO 17005KT 10SM 24/22 A2988 RMK AO2 SLP122 T02440222 TSNO $
 
KDYL - Doylestown, Pennsylvania, USA
Distance from station: SW 65mi, 104km
Updated: 07/26/2021 6:54pm
Clear
Clear
 Wind from N
Wind: N 3 mph , 6 km/h
Temperature: 88°F , 31°C
Dew Point: 55°F , 13°C
Humidity: 33%
Barometer: 29.90 inHg , 1012.5 hPa
Clouds: Clear
Visibility: 10 miles , 16 km
2021/07/26 22:54 KDYL 262254Z AUTO 01003KT 10SM CLR 31/13 A2990 RMK AO2 SLP119 T03110133
KOXC - Oxford/Waterbury, Connecticut, USA
Distance from station: NE 65mi, 105km
Updated: 07/26/2021 6:51pm
Haze, Clear
Haze, Clear
 Wind from calm
Wind: Calm
Temperature: 81°F , 27°C
Heat Index: 83°F , 28°C
Dew Point: 66°F , 19°C
Humidity: 62%
Barometer: 29.91 inHg , 1012.9 hPa
Summary: Haze
Clouds: Clear
Visibility: 6 miles , 10 km
2021/07/26 22:51 KOXC 262251Z 00000KT 6SM HZ CLR 27/19 A2991 RMK AO2 SLP134 T02720189
 
KMSV - Monticello, New York, USA
Distance from station: NNW 69mi, 111km
Updated: 07/26/2021 6:56pm
Clear
Clear
 Wind from NW
Wind: NW 6 mph , 9 km/h
Temperature: 81°F , 27°C
Heat Index: 81°F , 27°C
Dew Point: 57°F , 14°C
Humidity: 45%
Barometer: 29.96 inHg , 1014.6 hPa
Clouds: Clear
Visibility: 10 miles , 16 km
2021/07/26 22:56 KMSV 262256Z AUTO 31005KT 10SM CLR 27/14 A2996 RMK AO2 SLP135 T02670139
KHVN - New Haven/Tweed, Connecticut, USA
Distance from station: ENE 70mi, 112km
Updated: 07/26/2021 6:53pm
Haze, Clear
Haze, Clear
 Wind from NW
Wind: NW 5 mph , 7 km/h
Temperature: 88°F , 31°C
Heat Index: 89°F , 32°C
Dew Point: 63°F , 17°C
Humidity: 43%
Barometer: 29.87 inHg , 1011.5 hPa
Summary: Haze
Clouds: Clear
Visibility: 3 miles , 5 km
2021/07/26 22:53 KHVN 262253Z 32004KT 3SM HZ CLR 31/17 A2987 RMK AO2 SLP113 T03060167
 
KMPO - Mt. Pocono, Pennsylvania, USA
Distance from station: WNW 70mi, 113km
Updated: 07/26/2021 6:53pm
Overcast
Overcast
 Wind from WNW
Wind: WNW 5 mph , 7 km/h
Temperature: 75°F , 24°C
Dew Point: 57°F , 14°C
Humidity: 54%
Barometer: 29.99 inHg , 1015.6 hPa
Clouds: Overcast
Visibility: 10 miles , 16 km
Cloud details: Overcast 1600 ft
2021/07/26 22:53 KMPO 262253Z AUTO 30004KT 10SM OVC016 24/14 A2999 RMK AO2 SLP142 T02440139
KPNE - Philadelphia/Ne, Pennsylvania, USA
Distance from station: SW 72mi, 116km
Updated: 07/26/2021 6:54pm
Clear
Clear
 Wind from NNE
Wind: NNE 10 mph , 17 km/h
Temperature: 88°F , 31°C
Dew Point: 55°F , 13°C
Humidity: 33%
Barometer: 29.90 inHg , 1012.5 hPa
Clouds: Clear
Visibility: 10 miles , 16 km
2021/07/26 22:54 KPNE 262254Z 03009KT 10SM CLR 31/13 A2990 RMK AO2 SLP123 T03060133 $
 
KABE - Allentown, Pennsylvania, USA
Distance from station: W 73mi, 117km
Updated: 07/26/2021 6:51pm
Clear
Clear
 Wind from N
Wind: N 5 mph , 7 km/h
Temperature: 84°F , 29°C
Heat Index: 84°F , 29°C
Dew Point: 61°F , 16°C
Humidity: 45%
Barometer: 29.90 inHg , 1012.5 hPa
Clouds: Clear
Visibility: 10 miles , 16 km
2021/07/26 22:51 KABE 262251Z 36004KT 10SM CLR 29/16 A2990 RMK AO2 SLP123 T02940156
KUKT - Quakertown Arp, Pennsylvania, USA
Distance from station: WSW 74mi, 119km
Updated: 07/26/2021 7:35pm
Clear
Clear
 Wind from calm
Wind: Calm
Temperature: 84°F , 29°C
Heat Index: 85°F , 29°C
Dew Point: 63°F , 17°C
Humidity: 48%
Barometer: 29.93 inHg , 1013.5 hPa
Clouds: Clear
Visibility: 10 miles , 16 km
2021/07/26 23:35 KUKT 262335Z AUTO 00000KT 10SM CLR 29/17 A2993 RMK A01
 
KVAY - Mount Holly, New Jersey, USA
Distance from station: SSW 75mi, 120km
Updated: 07/26/2021 6:54pm
Clear
Clear
 Wind from NNE
Wind: NNE 5 mph , 7 km/h
Temperature: 88°F , 31°C
Heat Index: 90°F , 32°C
Dew Point: 64°F , 18°C
Humidity: 46%
Barometer: 29.88 inHg , 1011.9 hPa
Clouds: Clear
Visibility: 10 miles , 16 km
2021/07/26 22:54 KVAY 262254Z AUTO 03004KT 10SM CLR 31/18 A2988 RMK AO2 SLP117 T03110178
KXLL - Allentown Queen, Pennsylvania, USA
Distance from station: WSW 76mi, 122km
Updated: 07/26/2021 7:35pm
Clear
Clear
 Wind from calm
Wind: Calm
Temperature: 84°F , 29°C
Heat Index: 84°F , 29°C
Dew Point: 59°F , 15°C
Humidity: 43%
Barometer: 29.92 inHg , 1013.2 hPa
Clouds: Clear
Visibility: 10 miles , 16 km
2021/07/26 23:35 KXLL 262335Z AUTO 00000KT 10SM CLR 29/15 A2992 RMK AO2
 
KFOK - Westhampton Beac, New York, USA
Distance from station: E 77mi, 124km
Updated: 07/26/2021 6:53pm
Few Clouds
Few Clouds
 Wind from SW
Wind: SW 6 mph , 9 km/h
Temperature: 82°F , 28°C
Heat Index: 86°F , 30°C
Dew Point: 70°F , 21°C
Humidity: 66%
Barometer: 29.89 inHg , 1012.2 hPa
Clouds: Few Clouds
Visibility: 9 miles , 14 km
Cloud details: Few Clouds 7000 ft
2021/07/26 22:53 KFOK 262253Z 22005KT 9SM FEW070 28/21 A2989 RMK AO2 SLP120 T02780211
KLOM - Philly Wings F, Pennsylvania, USA
Distance from station: SW 79mi, 128km
Updated: 07/26/2021 7:35pm
Clear
Clear
 Wind from calm
Wind: Calm
Temperature: 79°F , 26°C
Dew Point: 68°F , 20°C
Humidity: 70%
Barometer: 29.91 inHg , 1012.9 hPa
Clouds: Clear
Visibility: 10 miles , 16 km
2021/07/26 23:35 KLOM 262335Z AUTO 00000KT 10SM CLR 26/20 A2991 RMK AO2 T02620204
 
KMMK - Meriden, Connecticut, USA
Distance from station: NE 80mi, 128km
Updated: 07/26/2021 6:53pm
Haze, Mostly cloudy
Haze, Mostly cloudy
 Wind from calm
Wind: Calm
Temperature: 81°F , 27°C
Heat Index: 83°F , 28°C
Dew Point: 66°F , 19°C
Humidity: 62%
Barometer: 29.87 inHg , 1011.5 hPa
Summary: Haze
Clouds: Mostly cloudy
Visibility: 5 miles , 8 km
Cloud details: Mostly cloudy 4200 ft
2021/07/26 22:53 KMMK 262253Z AUTO 00000KT 5SM HZ BKN042 27/19 A2987 RMK AO2 SLP112 T02720189
KPTW - Pottstown, Pennsylvania, USA
Distance from station: WSW 88mi, 141km
Updated: 07/26/2021 6:54pm
Clear
Clear
 Wind from NNW
Wind: NNW 5 mph , 7 km/h
Temperature: 86°F , 30°C
Dew Point: 55°F , 13°C
Humidity: 35%
Barometer: 29.92 inHg , 1013.2 hPa
Clouds: Clear
Visibility: 10 miles , 16 km
2021/07/26 22:54 KPTW 262254Z AUTO 34004KT 10SM CLR 30/13 A2992 RMK AO2 SLP128 T03000133 $
 
KSNC - Chester, Connecticut, USA
Distance from station: ENE 90mi, 146km
Updated: 07/26/2021 7:35pm
Haze, Clear
Haze, Clear
 Wind from calm
Wind: Calm
Temperature: 79°F , 26°C
Dew Point: 64°F , 18°C
Humidity: 61%
Barometer: 29.89 inHg , 1012.2 hPa
Summary: Haze
Clouds: Clear
Visibility: 5 miles , 8 km
2021/07/26 23:35 KSNC 262335Z AUTO 00000KT 5SM HZ CLR 26/18 A2989 RMK AO2
KPHL - Philadelphia, Pennsylvania, USA
Distance from station: SW 91mi, 146km
Updated: 07/26/2021 6:54pm
Few Clouds
Few Clouds
 Wind from NW
Wind: NW 8 mph , 13 km/h
Temperature: 91°F , 33°C
Dew Point: 55°F , 13°C
Humidity: 30%
Barometer: 29.89 inHg , 1012.2 hPa
Clouds: Few Clouds
Visibility: 10 miles , 16 km
Cloud details: Few Clouds 8000 ft
Few Clouds 26000 ft
2021/07/26 22:54 KPHL 262254Z 31007KT 10SM FEW080 FEW260 33/13 A2989 RMK AO2 SLP121 T03280128
 
KAVP - Avoca/Wilkes B., Pennsylvania, USA
Distance from station: WNW 91mi, 147km
Updated: 07/26/2021 6:54pm
Haze, Clear
Haze, Clear
 Wind from NW
Wind: NW 6 mph , 9 km/h
Temperature: 84°F , 29°C
Heat Index: 84°F , 29°C
Dew Point: 59°F , 15°C
Humidity: 43%
Barometer: 29.93 inHg , 1013.5 hPa
Summary: Haze
Clouds: Clear
Visibility: 9 miles , 14 km
2021/07/26 22:54 KAVP 262254Z 31005KT 9SM HZ CLR 29/15 A2993 RMK AO2 SLP125 T02890150
KHFD - Hartford/Brainar, Connecticut, USA
Distance from station: NE 96mi, 155km
Updated: 07/26/2021 6:53pm
Haze, Clear
Haze, Clear
 Wind from WNW
Wind: WNW 5 mph , 7 km/h
Temperature: 86°F , 30°C
Dew Point: 57°F , 14°C
Humidity: 38%
Barometer: 29.85 inHg , 1010.8 hPa
Summary: Haze
Clouds: Clear
Visibility: 4 miles , 6 km
2021/07/26 22:53 KHFD 262253Z 30004KT 4SM HZ CLR 30/14 A2985 RMK AO2 SLP109 T03000144
 
KHTO - East Hampton, New York, USA
Distance from station: E 96mi, 155km
Updated: 07/26/2021 7:35pm
Clear
Clear
 Wind from SW
Wind: SW 3 mph , 6 km/h
Temperature: 79°F , 26°C
Dew Point: 70°F , 21°C
Humidity: 74%
Barometer: 29.87 inHg , 1011.5 hPa
Clouds: Clear
Visibility: 10 miles , 16 km
2021/07/26 23:35 KHTO 262335Z AUTO 23003KT 10SM CLR 26/21 A2987 RMK AO2 T02570207
KACY - Atlantic City, New Jersey, USA
Distance from station: SSW 99mi, 160km
Updated: 07/26/2021 6:54pm
Partly cloudy
Partly cloudy
 Wind from W
Wind: W 8 mph , 13 km/h
Temperature: 88°F , 31°C
Heat Index: 92°F , 33°C
Dew Point: 68°F , 20°C
Humidity: 52%
Barometer: 29.89 inHg , 1012.2 hPa
Clouds: Partly cloudy
Visibility: 10 miles , 16 km
Cloud details: Partly cloudy 6000 ft
2021/07/26 22:54 KACY 262254Z 28007KT 10SM SCT060 31/20 A2989 RMK AO2 SLP119 T03110200 $